sensor_id;sensor_type;location;lat;lon;timestamp;temperature;humidity
573;DHT22;271;51.114;13.780;2022-12-31T00:01:27;10.80;1.00
573;DHT22;271;51.114;13.780;2022-12-31T00:03:55;10.80;1.00
573;DHT22;271;51.114;13.780;2022-12-31T00:06:26;10.90;1.00
573;DHT22;271;51.114;13.780;2022-12-31T00:08:55;11.00;1.00
573;DHT22;271;51.114;13.780;2022-12-31T00:11:24;10.90;1.00
573;DHT22;271;51.114;13.780;2022-12-31T00:13:52;11.10;1.00
573;DHT22;271;51.114;13.780;2022-12-31T00:16:22;11.10;1.00
573;DHT22;271;51.114;13.780;2022-12-31T00:18:52;11.10;1.00
573;DHT22;271;51.114;13.780;2022-12-31T00:21:21;11.10;1.00
573;DHT22;271;51.114;13.780;2022-12-31T00:23:49;11.10;1.00
573;DHT22;271;51.114;13.780;2022-12-31T00:26:19;11.10;1.00
573;DHT22;271;51.114;13.780;2022-12-31T00:28:47;11.20;1.00
573;DHT22;271;51.114;13.780;2022-12-31T00:31:20;11.20;1.00
573;DHT22;271;51.114;13.780;2022-12-31T00:33:48;11.20;1.00
573;DHT22;271;51.114;13.780;2022-12-31T00:36:17;11.20;1.00
573;DHT22;271;51.114;13.780;2022-12-31T00:38:46;11.20;1.00
573;DHT22;271;51.114;13.780;2022-12-31T00:41:16;11.20;1.00
573;DHT22;271;51.114;13.780;2022-12-31T00:43:44;11.30;1.00
573;DHT22;271;51.114;13.780;2022-12-31T00:46:12;11.30;1.00
573;DHT22;271;51.114;13.780;2022-12-31T00:48:40;11.30;1.00
573;DHT22;271;51.114;13.780;2022-12-31T00:51:11;11.30;1.00
573;DHT22;271;51.114;13.780;2022-12-31T00:53:38;11.30;1.00
573;DHT22;271;51.114;13.780;2022-12-31T00:56:09;11.30;1.00
573;DHT22;271;51.114;13.780;2022-12-31T00:58:38;11.30;1.00
573;DHT22;271;51.114;13.780;2022-12-31T01:01:09;11.30;1.00
573;DHT22;271;51.114;13.780;2022-12-31T01:03:37;11.40;1.00
573;DHT22;271;51.114;13.780;2022-12-31T01:06:06;11.50;1.00
573;DHT22;271;51.114;13.780;2022-12-31T01:08:33;11.50;1.00
573;DHT22;271;51.114;13.780;2022-12-31T01:11:01;11.50;1.00
573;DHT22;271;51.114;13.780;2022-12-31T01:13:50;11.50;1.00
573;DHT22;271;51.114;13.780;2022-12-31T01:16:19;11.60;1.00
573;DHT22;271;51.114;13.780;2022-12-31T01:18:47;11.60;1.00
573;DHT22;271;51.114;13.780;2022-12-31T01:21:15;11.60;1.00
573;DHT22;271;51.114;13.780;2022-12-31T01:23:43;11.50;1.00
573;DHT22;271;51.114;13.780;2022-12-31T01:26:13;11.40;1.00
573;DHT22;271;51.114;13.780;2022-12-31T01:28:41;11.50;1.00
573;DHT22;271;51.114;13.780;2022-12-31T01:31:12;11.50;1.00
573;DHT22;271;51.114;13.780;2022-12-31T01:33:40;11.40;1.00
573;DHT22;271;51.114;13.780;2022-12-31T01:36:10;11.50;1.00
573;DHT22;271;51.114;13.780;2022-12-31T01:38:38;11.40;1.00
573;DHT22;271;51.114;13.780;2022-12-31T01:41:06;11.50;1.00
573;DHT22;271;51.114;13.780;2022-12-31T01:43:46;11.60;1.00
573;DHT22;271;51.114;13.780;2022-12-31T01:46:20;11.60;1.00
573;DHT22;271;51.114;13.780;2022-12-31T01:48:52;11.50;1.00
573;DHT22;271;51.114;13.780;2022-12-31T01:51:23;11.50;1.00
573;DHT22;271;51.114;13.780;2022-12-31T01:53:51;11.50;1.00
573;DHT22;271;51.114;13.780;2022-12-31T01:56:21;11.60;1.00
573;DHT22;271;51.114;13.780;2022-12-31T01:58:51;11.60;1.00
573;DHT22;271;51.114;13.780;2022-12-31T02:01:23;11.50;1.00
573;DHT22;271;51.114;13.780;2022-12-31T02:03:51;11.40;1.00
573;DHT22;271;51.114;13.780;2022-12-31T02:06:21;11.40;1.00
573;DHT22;271;51.114;13.780;2022-12-31T02:08:49;11.40;1.00
573;DHT22;271;51.114;13.780;2022-12-31T02:11:22;11.40;1.00
573;DHT22;271;51.114;13.780;2022-12-31T02:13:51;11.50;1.00
573;DHT22;271;51.114;13.780;2022-12-31T02:16:28;11.40;1.00
573;DHT22;271;51.114;13.780;2022-12-31T02:19:00;11.50;1.00
573;DHT22;271;51.114;13.780;2022-12-31T02:21:39;11.50;1.00
573;DHT22;271;51.114;13.780;2022-12-31T02:24:37;11.40;1.00
573;DHT22;271;51.114;13.780;2022-12-31T02:27:08;11.50;1.00
573;DHT22;271;51.114;13.780;2022-12-31T02:33:07;11.40;1.00
573;DHT22;271;51.114;13.780;2022-12-31T02:35:45;11.40;1.00
573;DHT22;271;51.114;13.780;2022-12-31T02:38:18;11.40;1.00
573;DHT22;271;51.114;13.780;2022-12-31T02:40:47;11.40;1.00
573;DHT22;271;51.114;13.780;2022-12-31T02:43:22;11.40;1.00
573;DHT22;271;51.114;13.780;2022-12-31T02:45:55;11.50;1.00
573;DHT22;271;51.114;13.780;2022-12-31T02:48:36;11.50;1.00
573;DHT22;271;51.114;13.780;2022-12-31T02:51:14;11.50;1.00
573;DHT22;271;51.114;13.780;2022-12-31T02:54:10;11.50;1.00
573;DHT22;271;51.114;13.780;2022-12-31T02:56:43;11.50;1.00
573;DHT22;271;51.114;13.780;2022-12-31T02:59:16;11.60;1.00
573;DHT22;271;51.114;13.780;2022-12-31T03:02:05;11.60;1.00
573;DHT22;271;51.114;13.780;2022-12-31T03:04:44;11.60;1.00
573;DHT22;271;51.114;13.780;2022-12-31T03:07:16;11.50;1.00
573;DHT22;271;51.114;13.780;2022-12-31T03:09:44;11.60;1.00
573;DHT22;271;51.114;13.780;2022-12-31T03:12:12;11.60;1.00
573;DHT22;271;51.114;13.780;2022-12-31T03:14:57;11.60;1.00
573;DHT22;271;51.114;13.780;2022-12-31T03:17:24;11.60;1.00
573;DHT22;271;51.114;13.780;2022-12-31T03:19:53;11.60;1.00
573;DHT22;271;51.114;13.780;2022-12-31T03:22:40;11.60;1.00
573;DHT22;271;51.114;13.780;2022-12-31T03:25:11;11.70;1.00
573;DHT22;271;51.114;13.780;2022-12-31T03:27:56;11.60;1.00
573;DHT22;271;51.114;13.780;2022-12-31T03:30:25;11.70;1.00
573;DHT22;271;51.114;13.780;2022-12-31T03:32:53;11.70;1.00
573;DHT22;271;51.114;13.780;2022-12-31T03:35:25;11.70;1.00
573;DHT22;271;51.114;13.780;2022-12-31T03:37:53;11.70;1.00
573;DHT22;271;51.114;13.780;2022-12-31T03:40:21;11.60;1.00
573;DHT22;271;51.114;13.780;2022-12-31T03:42:49;11.70;1.00
573;DHT22;271;51.114;13.780;2022-12-31T03:45:16;11.60;1.00
573;DHT22;271;51.114;13.780;2022-12-31T03:47:44;11.70;1.00
573;DHT22;271;51.114;13.780;2022-12-31T03:50:13;11.60;1.00
573;DHT22;271;51.114;13.780;2022-12-31T03:52:42;11.60;1.00
573;DHT22;271;51.114;13.780;2022-12-31T03:55:10;11.70;1.00
573;DHT22;271;51.114;13.780;2022-12-31T03:57:38;11.70;1.00
573;DHT22;271;51.114;13.780;2022-12-31T04:00:09;11.70;1.00
573;DHT22;271;51.114;13.780;2022-12-31T04:02:36;11.70;1.00
573;DHT22;271;51.114;13.780;2022-12-31T04:05:05;11.80;1.00
573;DHT22;271;51.114;13.780;2022-12-31T04:07:32;11.80;1.00
573;DHT22;271;51.114;13.780;2022-12-31T04:10:01;11.70;1.00
573;DHT22;271;51.114;13.780;2022-12-31T04:12:28;11.80;1.00
573;DHT22;271;51.114;13.780;2022-12-31T04:14:56;11.80;1.00
573;DHT22;271;51.114;13.780;2022-12-31T04:17:24;11.80;1.00
573;DHT22;271;51.114;13.780;2022-12-31T04:19:51;11.90;1.00
573;DHT22;271;51.114;13.780;2022-12-31T04:22:19;11.90;1.00
573;DHT22;271;51.114;13.780;2022-12-31T04:24:46;11.90;1.00
573;DHT22;271;51.114;13.780;2022-12-31T04:27:15;12.00;1.00
573;DHT22;271;51.114;13.780;2022-12-31T04:29:42;12.10;1.00
573;DHT22;271;51.114;13.780;2022-12-31T04:32:10;12.20;1.00
573;DHT22;271;51.114;13.780;2022-12-31T04:34:37;12.20;1.00
573;DHT22;271;51.114;13.780;2022-12-31T04:37:04;12.30;1.00
573;DHT22;271;51.114;13.780;2022-12-31T04:39:32;12.40;1.00
573;DHT22;271;51.114;13.780;2022-12-31T04:41:59;12.40;1.00
573;DHT22;271;51.114;13.780;2022-12-31T04:44:28;12.60;1.00
573;DHT22;271;51.114;13.780;2022-12-31T04:46:56;12.70;1.00
573;DHT22;271;51.114;13.780;2022-12-31T04:49:24;12.70;1.00
573;DHT22;271;51.114;13.780;2022-12-31T04:51:51;12.80;1.00
573;DHT22;271;51.114;13.780;2022-12-31T04:54:18;12.80;1.00
573;DHT22;271;51.114;13.780;2022-12-31T04:56:46;12.90;1.00
573;DHT22;271;51.114;13.780;2022-12-31T04:59:13;12.80;1.00
573;DHT22;271;51.114;13.780;2022-12-31T05:01:42;12.80;1.00
573;DHT22;271;51.114;13.780;2022-12-31T05:04:09;13.00;1.00
573;DHT22;271;51.114;13.780;2022-12-31T05:06:36;13.00;1.00
573;DHT22;271;51.114;13.780;2022-12-31T05:09:04;13.10;1.00
573;DHT22;271;51.114;13.780;2022-12-31T05:11:31;13.20;1.00
573;DHT22;271;51.114;13.780;2022-12-31T05:13:59;13.20;1.00
573;DHT22;271;51.114;13.780;2022-12-31T05:16:26;13.20;1.00
573;DHT22;271;51.114;13.780;2022-12-31T05:18:55;13.20;1.00
573;DHT22;271;51.114;13.780;2022-12-31T05:21:22;13.10;1.00
573;DHT22;271;51.114;13.780;2022-12-31T05:23:49;13.20;1.00
573;DHT22;271;51.114;13.780;2022-12-31T05:26:17;13.20;1.00
573;DHT22;271;51.114;13.780;2022-12-31T05:28:45;13.30;1.00
573;DHT22;271;51.114;13.780;2022-12-31T05:31:12;13.30;1.00
573;DHT22;271;51.114;13.780;2022-12-31T05:33:40;13.30;1.00
573;DHT22;271;51.114;13.780;2022-12-31T05:36:09;13.40;1.00
573;DHT22;271;51.114;13.780;2022-12-31T05:38:36;13.40;1.00
573;DHT22;271;51.114;13.780;2022-12-31T05:41:05;13.40;1.00
573;DHT22;271;51.114;13.780;2022-12-31T05:43:33;13.40;1.00
573;DHT22;271;51.114;13.780;2022-12-31T05:46:01;13.40;1.00
573;DHT22;271;51.114;13.780;2022-12-31T05:48:30;13.60;1.00
573;DHT22;271;51.114;13.780;2022-12-31T05:50:58;13.60;1.00
573;DHT22;271;51.114;13.780;2022-12-31T05:53:26;13.50;1.00
573;DHT22;271;51.114;13.780;2022-12-31T05:55:54;13.50;1.00
573;DHT22;271;51.114;13.780;2022-12-31T05:58:21;13.50;1.00
573;DHT22;271;51.114;13.780;2022-12-31T06:00:50;13.50;1.00
573;DHT22;271;51.114;13.780;2022-12-31T06:03:17;13.60;1.00
573;DHT22;271;51.114;13.780;2022-12-31T06:05:45;13.50;1.00
573;DHT22;271;51.114;13.780;2022-12-31T06:08:12;13.40;1.00
573;DHT22;271;51.114;13.780;2022-12-31T06:10:41;13.50;1.00
573;DHT22;271;51.114;13.780;2022-12-31T06:13:09;13.40;1.00
573;DHT22;271;51.114;13.780;2022-12-31T06:15:37;13.40;1.00
573;DHT22;271;51.114;13.780;2022-12-31T06:18:05;13.40;1.00
573;DHT22;271;51.114;13.780;2022-12-31T06:20:35;13.50;1.00
573;DHT22;271;51.114;13.780;2022-12-31T06:23:03;13.60;1.00
573;DHT22;271;51.114;13.780;2022-12-31T06:25:30;13.60;1.00
573;DHT22;271;51.114;13.780;2022-12-31T06:27:59;13.60;1.00
573;DHT22;271;51.114;13.780;2022-12-31T06:30:26;13.60;1.00
573;DHT22;271;51.114;13.780;2022-12-31T06:32:54;13.70;1.00
573;DHT22;271;51.114;13.780;2022-12-31T06:35:22;13.80;1.00
573;DHT22;271;51.114;13.780;2022-12-31T06:37:50;13.80;1.00
573;DHT22;271;51.114;13.780;2022-12-31T06:40:18;13.90;1.00
573;DHT22;271;51.114;13.780;2022-12-31T06:42:45;13.80;1.00
573;DHT22;271;51.114;13.780;2022-12-31T06:45:14;13.90;1.00
573;DHT22;271;51.114;13.780;2022-12-31T06:47:41;13.90;1.00
573;DHT22;271;51.114;13.780;2022-12-31T06:50:09;13.90;1.00
573;DHT22;271;51.114;13.780;2022-12-31T06:52:37;14.00;1.00
573;DHT22;271;51.114;13.780;2022-12-31T06:55:06;14.00;1.00
573;DHT22;271;51.114;13.780;2022-12-31T06:57:34;14.00;1.00
573;DHT22;271;51.114;13.780;2022-12-31T07:00:02;14.00;1.00
573;DHT22;271;51.114;13.780;2022-12-31T07:02:49;14.00;1.00
573;DHT22;271;51.114;13.780;2022-12-31T07:05:38;14.00;1.00
573;DHT22;271;51.114;13.780;2022-12-31T07:08:26;14.00;1.00
573;DHT22;271;51.114;13.780;2022-12-31T07:11:02;14.00;1.00
573;DHT22;271;51.114;13.780;2022-12-31T07:13:49;14.10;1.00
573;DHT22;271;51.114;13.780;2022-12-31T07:16:33;14.10;1.00
573;DHT22;271;51.114;13.780;2022-12-31T07:19:11;14.20;1.00
573;DHT22;271;51.114;13.780;2022-12-31T07:21:41;14.10;1.00
573;DHT22;271;51.114;13.780;2022-12-31T07:24:10;14.20;1.00
573;DHT22;271;51.114;13.780;2022-12-31T07:26:48;14.20;1.00
573;DHT22;271;51.114;13.780;2022-12-31T07:29:23;14.20;1.00
573;DHT22;271;51.114;13.780;2022-12-31T07:32:04;14.20;1.00
573;DHT22;271;51.114;13.780;2022-12-31T07:34:45;14.20;1.00
573;DHT22;271;51.114;13.780;2022-12-31T07:37:24;14.20;1.00
573;DHT22;271;51.114;13.780;2022-12-31T07:40:03;14.20;1.00
573;DHT22;271;51.114;13.780;2022-12-31T07:42:40;14.20;1.00
573;DHT22;271;51.114;13.780;2022-12-31T07:45:16;14.20;1.00
573;DHT22;271;51.114;13.780;2022-12-31T07:47:45;14.30;1.00
573;DHT22;271;51.114;13.780;2022-12-31T07:50:16;14.40;1.00
573;DHT22;271;51.114;13.780;2022-12-31T07:52:45;14.50;1.00
573;DHT22;271;51.114;13.780;2022-12-31T07:55:13;14.60;1.00
573;DHT22;271;51.114;13.780;2022-12-31T07:57:47;14.60;1.00
573;DHT22;271;51.114;13.780;2022-12-31T08:00:18;14.70;1.00
573;DHT22;271;51.114;13.780;2022-12-31T08:03:00;14.80;1.00
573;DHT22;271;51.114;13.780;2022-12-31T08:05:36;14.70;1.00
573;DHT22;271;51.114;13.780;2022-12-31T08:08:21;14.70;1.00
573;DHT22;271;51.114;13.780;2022-12-31T08:10:59;14.80;1.00
573;DHT22;271;51.114;13.780;2022-12-31T08:13:29;14.90;1.00
573;DHT22;271;51.114;13.780;2022-12-31T08:15:58;15.00;1.00
573;DHT22;271;51.114;13.780;2022-12-31T08:18:26;15.10;1.00
573;DHT22;271;51.114;13.780;2022-12-31T08:21:03;15.20;1.00
573;DHT22;271;51.114;13.780;2022-12-31T08:23:36;15.30;1.00
573;DHT22;271;51.114;13.780;2022-12-31T08:26:19;15.30;1.00
573;DHT22;271;51.114;13.780;2022-12-31T08:29:01;15.30;1.00
573;DHT22;271;51.114;13.780;2022-12-31T08:31:38;15.40;1.00
573;DHT22;271;51.114;13.780;2022-12-31T08:34:14;15.50;1.00
573;DHT22;271;51.114;13.780;2022-12-31T08:36:50;15.60;1.00
573;DHT22;271;51.114;13.780;2022-12-31T08:39:29;15.70;1.00
573;DHT22;271;51.114;13.780;2022-12-31T08:42:02;15.70;1.00
573;DHT22;271;51.114;13.780;2022-12-31T08:44:37;15.80;1.00
573;DHT22;271;51.114;13.780;2022-12-31T08:47:13;15.80;1.00
573;DHT22;271;51.114;13.780;2022-12-31T08:49:44;15.90;1.00
573;DHT22;271;51.114;13.780;2022-12-31T08:52:15;15.90;1.00
573;DHT22;271;51.114;13.780;2022-12-31T08:54:45;15.90;1.00
573;DHT22;271;51.114;13.780;2022-12-31T08:57:22;16.00;1.00
573;DHT22;271;51.114;13.780;2022-12-31T09:00:03;16.00;1.00
573;DHT22;271;51.114;13.780;2022-12-31T09:02:45;16.10;1.00
573;DHT22;271;51.114;13.780;2022-12-31T09:05:21;16.10;1.00
573;DHT22;271;51.114;13.780;2022-12-31T09:07:59;16.20;1.00
573;DHT22;271;51.114;13.780;2022-12-31T09:10:31;16.30;1.00
573;DHT22;271;51.114;13.780;2022-12-31T09:13:08;16.40;1.00
573;DHT22;271;51.114;13.780;2022-12-31T09:15:41;16.50;1.00
573;DHT22;271;51.114;13.780;2022-12-31T09:18:11;16.50;1.00
573;DHT22;271;51.114;13.780;2022-12-31T09:20:39;16.50;1.00
573;DHT22;271;51.114;13.780;2022-12-31T09:23:09;16.50;1.00
573;DHT22;271;51.114;13.780;2022-12-31T09:25:41;16.50;1.00
573;DHT22;271;51.114;13.780;2022-12-31T09:28:14;16.50;1.00
573;DHT22;271;51.114;13.780;2022-12-31T09:30:50;16.50;1.00
573;DHT22;271;51.114;13.780;2022-12-31T09:33:32;16.50;1.00
573;DHT22;271;51.114;13.780;2022-12-31T09:36:05;16.50;1.00
573;DHT22;271;51.114;13.780;2022-12-31T09:38:40;16.60;1.00
573;DHT22;271;51.114;13.780;2022-12-31T09:41:15;16.60;1.00
573;DHT22;271;51.114;13.780;2022-12-31T09:47:18;16.60;1.00
573;DHT22;271;51.114;13.780;2022-12-31T09:50:16;16.70;1.00
573;DHT22;271;51.114;13.780;2022-12-31T09:53:07;16.70;1.00
573;DHT22;271;51.114;13.780;2022-12-31T09:55:46;16.70;1.00
573;DHT22;271;51.114;13.780;2022-12-31T10:07:07;17.00;1.00
573;DHT22;271;51.114;13.780;2022-12-31T10:09:49;17.20;1.00
573;DHT22;271;51.114;13.780;2022-12-31T10:12:35;17.40;1.00
573;DHT22;271;51.114;13.780;2022-12-31T10:15:31;17.50;1.00
573;DHT22;271;51.114;13.780;2022-12-31T10:18:05;17.70;1.00
573;DHT22;271;51.114;13.780;2022-12-31T10:20:49;17.70;1.00
573;DHT22;271;51.114;13.780;2022-12-31T10:23:36;17.80;1.00
573;DHT22;271;51.114;13.780;2022-12-31T10:26:36;17.80;1.00
573;DHT22;271;51.114;13.780;2022-12-31T10:29:18;17.90;1.00
573;DHT22;271;51.114;13.780;2022-12-31T10:31:58;18.00;1.00
573;DHT22;271;51.114;13.780;2022-12-31T10:34:37;18.10;1.00
573;DHT22;271;51.114;13.780;2022-12-31T10:37:15;18.10;1.00
573;DHT22;271;51.114;13.780;2022-12-31T10:39:50;18.10;1.00
573;DHT22;271;51.114;13.780;2022-12-31T10:45:39;18.10;1.00
573;DHT22;271;51.114;13.780;2022-12-31T10:48:56;18.00;1.00
573;DHT22;271;51.114;13.780;2022-12-31T10:55:12;17.70;1.00
573;DHT22;271;51.114;13.780;2022-12-31T10:58:39;17.60;1.00
573;DHT22;271;51.114;13.780;2022-12-31T11:01:17;17.40;1.00
573;DHT22;271;51.114;13.780;2022-12-31T11:07:41;17.30;1.00
573;DHT22;271;51.114;13.780;2022-12-31T11:13:56;17.20;1.00
573;DHT22;271;51.114;13.780;2022-12-31T11:19:40;17.20;1.00
573;DHT22;271;51.114;13.780;2022-12-31T11:22:32;17.30;1.00
573;DHT22;271;51.114;13.780;2022-12-31T11:25:17;17.30;1.00
573;DHT22;271;51.114;13.780;2022-12-31T11:27:58;17.20;1.00
573;DHT22;271;51.114;13.780;2022-12-31T11:30:35;17.30;1.00
573;DHT22;271;51.114;13.780;2022-12-31T11:33:19;17.30;1.00
573;DHT22;271;51.114;13.780;2022-12-31T11:36:11;17.30;1.00
573;DHT22;271;51.114;13.780;2022-12-31T11:38:45;17.30;1.00
573;DHT22;271;51.114;13.780;2022-12-31T11:41:22;17.30;1.00
573;DHT22;271;51.114;13.780;2022-12-31T11:44:00;17.30;1.00
573;DHT22;271;51.114;13.780;2022-12-31T11:46:46;17.30;1.00
573;DHT22;271;51.114;13.780;2022-12-31T11:49:33;17.30;1.00
573;DHT22;271;51.114;13.780;2022-12-31T11:52:15;17.30;1.00
573;DHT22;271;51.114;13.780;2022-12-31T11:55:09;17.30;1.00
573;DHT22;271;51.114;13.780;2022-12-31T11:57:47;17.30;1.00
573;DHT22;271;51.114;13.780;2022-12-31T12:00:17;17.30;1.00
573;DHT22;271;51.114;13.780;2022-12-31T12:02:47;17.40;1.00
573;DHT22;271;51.114;13.780;2022-12-31T12:05:18;17.40;1.00
573;DHT22;271;51.114;13.780;2022-12-31T12:07:46;17.40;1.00
573;DHT22;271;51.114;13.780;2022-12-31T12:10:20;17.30;1.00
573;DHT22;271;51.114;13.780;2022-12-31T12:12:50;17.40;1.00
573;DHT22;271;51.114;13.780;2022-12-31T12:15:21;17.40;1.00
573;DHT22;271;51.114;13.780;2022-12-31T12:17:52;17.40;1.00
573;DHT22;271;51.114;13.780;2022-12-31T12:20:27;17.50;1.00
573;DHT22;271;51.114;13.780;2022-12-31T12:22:56;17.50;1.00
573;DHT22;271;51.114;13.780;2022-12-31T12:25:26;17.50;1.00
573;DHT22;271;51.114;13.780;2022-12-31T12:27:54;17.60;1.00
573;DHT22;271;51.114;13.780;2022-12-31T12:30:24;17.60;1.00
573;DHT22;271;51.114;13.780;2022-12-31T12:32:55;17.70;1.00
573;DHT22;271;51.114;13.780;2022-12-31T12:35:27;17.80;1.00
573;DHT22;271;51.114;13.780;2022-12-31T12:37:59;17.80;1.00
573;DHT22;271;51.114;13.780;2022-12-31T12:40:27;17.80;1.00
573;DHT22;271;51.114;13.780;2022-12-31T12:42:55;17.90;1.00
573;DHT22;271;51.114;13.780;2022-12-31T12:45:24;17.90;1.00
573;DHT22;271;51.114;13.780;2022-12-31T12:47:55;18.00;1.00
573;DHT22;271;51.114;13.780;2022-12-31T12:50:31;17.90;1.00
573;DHT22;271;51.114;13.780;2022-12-31T12:53:24;17.90;1.00
573;DHT22;271;51.114;13.780;2022-12-31T12:56:00;17.90;1.00
573;DHT22;271;51.114;13.780;2022-12-31T12:58:41;17.90;1.00
573;DHT22;271;51.114;13.780;2022-12-31T13:01:22;17.80;1.00
573;DHT22;271;51.114;13.780;2022-12-31T13:04:14;17.80;1.00
573;DHT22;271;51.114;13.780;2022-12-31T13:07:01;17.80;1.00
573;DHT22;271;51.114;13.780;2022-12-31T13:09:42;17.70;1.00
573;DHT22;271;51.114;13.780;2022-12-31T13:12:17;17.70;1.00
573;DHT22;271;51.114;13.780;2022-12-31T13:14:53;17.70;1.00
573;DHT22;271;51.114;13.780;2022-12-31T13:17:42;17.80;1.00
573;DHT22;271;51.114;13.780;2022-12-31T13:20:16;17.80;1.00
573;DHT22;271;51.114;13.780;2022-12-31T13:22:53;17.70;1.00
573;DHT22;271;51.114;13.780;2022-12-31T13:25:29;17.60;1.00
573;DHT22;271;51.114;13.780;2022-12-31T13:28:02;17.70;1.00
573;DHT22;271;51.114;13.780;2022-12-31T13:30:37;17.70;1.00
573;DHT22;271;51.114;13.780;2022-12-31T13:33:13;17.70;1.00
573;DHT22;271;51.114;13.780;2022-12-31T13:35:44;17.60;1.00
573;DHT22;271;51.114;13.780;2022-12-31T13:38:18;17.60;1.00
573;DHT22;271;51.114;13.780;2022-12-31T13:40:52;17.60;1.00
573;DHT22;271;51.114;13.780;2022-12-31T13:43:33;17.50;1.00
573;DHT22;271;51.114;13.780;2022-12-31T13:46:11;17.50;1.00
573;DHT22;271;51.114;13.780;2022-12-31T13:48:45;17.50;1.00
573;DHT22;271;51.114;13.780;2022-12-31T13:51:21;17.50;1.00
573;DHT22;271;51.114;13.780;2022-12-31T13:53:56;17.40;1.00
573;DHT22;271;51.114;13.780;2022-12-31T13:56:28;17.40;1.00
573;DHT22;271;51.114;13.780;2022-12-31T13:59:00;17.40;1.00
573;DHT22;271;51.114;13.780;2022-12-31T14:01:35;17.30;1.00
573;DHT22;271;51.114;13.780;2022-12-31T14:04:11;17.40;1.00
573;DHT22;271;51.114;13.780;2022-12-31T14:06:44;17.40;1.00
573;DHT22;271;51.114;13.780;2022-12-31T14:09:18;17.40;1.00
573;DHT22;271;51.114;13.780;2022-12-31T14:14:40;17.20;1.00
573;DHT22;271;51.114;13.780;2022-12-31T14:17:17;17.20;1.00
573;DHT22;271;51.114;13.780;2022-12-31T14:19:54;17.20;1.00
573;DHT22;271;51.114;13.780;2022-12-31T14:22:31;17.10;1.00
573;DHT22;271;51.114;13.780;2022-12-31T14:25:03;17.10;1.00
573;DHT22;271;51.114;13.780;2022-12-31T14:27:36;17.10;1.00
573;DHT22;271;51.114;13.780;2022-12-31T14:30:13;17.10;1.00
573;DHT22;271;51.114;13.780;2022-12-31T14:33:17;17.00;1.00
573;DHT22;271;51.114;13.780;2022-12-31T14:36:08;17.00;1.00
573;DHT22;271;51.114;13.780;2022-12-31T14:38:48;17.00;1.00
573;DHT22;271;51.114;13.780;2022-12-31T14:41:26;17.00;1.00
573;DHT22;271;51.114;13.780;2022-12-31T14:44:07;17.00;1.00
573;DHT22;271;51.114;13.780;2022-12-31T14:46:43;17.00;1.00
573;DHT22;271;51.114;13.780;2022-12-31T14:49:34;17.00;1.00
573;DHT22;271;51.114;13.780;2022-12-31T14:52:20;16.90;1.00
573;DHT22;271;51.114;13.780;2022-12-31T14:54:57;16.90;1.00
573;DHT22;271;51.114;13.780;2022-12-31T14:57:33;16.90;1.00
573;DHT22;271;51.114;13.780;2022-12-31T15:00:22;16.90;1.00
573;DHT22;271;51.114;13.780;2022-12-31T15:02:52;16.70;1.00
573;DHT22;271;51.114;13.780;2022-12-31T15:05:22;16.80;1.00
573;DHT22;271;51.114;13.780;2022-12-31T15:11:18;16.90;1.00
573;DHT22;271;51.114;13.780;2022-12-31T15:14:12;16.80;1.00
573;DHT22;271;51.114;13.780;2022-12-31T15:16:48;16.80;1.00
573;DHT22;271;51.114;13.780;2022-12-31T15:19:43;16.80;1.00
573;DHT22;271;51.114;13.780;2022-12-31T15:22:29;16.80;1.00
573;DHT22;271;51.114;13.780;2022-12-31T15:25:01;16.80;1.00
573;DHT22;271;51.114;13.780;2022-12-31T15:27:33;16.80;1.00
573;DHT22;271;51.114;13.780;2022-12-31T15:30:04;16.80;1.00
573;DHT22;271;51.114;13.780;2022-12-31T15:32:35;16.80;1.00
573;DHT22;271;51.114;13.780;2022-12-31T15:35:24;16.80;1.00
573;DHT22;271;51.114;13.780;2022-12-31T15:37:57;16.80;1.00
573;DHT22;271;51.114;13.780;2022-12-31T15:40:27;16.70;1.00
573;DHT22;271;51.114;13.780;2022-12-31T15:42:58;16.80;1.00
573;DHT22;271;51.114;13.780;2022-12-31T15:45:32;16.70;1.00
573;DHT22;271;51.114;13.780;2022-12-31T15:48:02;16.70;1.00
573;DHT22;271;51.114;13.780;2022-12-31T15:50:35;16.70;1.00
573;DHT22;271;51.114;13.780;2022-12-31T15:53:05;16.70;1.00
573;DHT22;271;51.114;13.780;2022-12-31T15:55:37;16.70;1.00
573;DHT22;271;51.114;13.780;2022-12-31T15:58:10;16.60;1.00
573;DHT22;271;51.114;13.780;2022-12-31T16:00:53;16.50;1.00
573;DHT22;271;51.114;13.780;2022-12-31T16:03:25;16.60;1.00
573;DHT22;271;51.114;13.780;2022-12-31T16:05:58;16.50;1.00
573;DHT22;271;51.114;13.780;2022-12-31T16:08:29;16.50;1.00
573;DHT22;271;51.114;13.780;2022-12-31T16:10:57;16.50;1.00
573;DHT22;271;51.114;13.780;2022-12-31T16:13:27;16.40;1.00
573;DHT22;271;51.114;13.780;2022-12-31T16:15:59;16.40;1.00
573;DHT22;271;51.114;13.780;2022-12-31T16:18:36;16.40;1.00
573;DHT22;271;51.114;13.780;2022-12-31T16:21:04;16.40;1.00
573;DHT22;271;51.114;13.780;2022-12-31T16:23:32;16.40;1.00
573;DHT22;271;51.114;13.780;2022-12-31T16:26:00;16.40;1.00
573;DHT22;271;51.114;13.780;2022-12-31T16:28:31;16.40;1.00
573;DHT22;271;51.114;13.780;2022-12-31T16:31:02;16.40;1.00
573;DHT22;271;51.114;13.780;2022-12-31T16:33:30;16.30;1.00
573;DHT22;271;51.114;13.780;2022-12-31T16:35:59;16.40;1.00
573;DHT22;271;51.114;13.780;2022-12-31T16:38:32;16.30;1.00
573;DHT22;271;51.114;13.780;2022-12-31T16:41:07;16.30;1.00
573;DHT22;271;51.114;13.780;2022-12-31T16:43:42;16.30;1.00
573;DHT22;271;51.114;13.780;2022-12-31T16:46:15;16.30;1.00
573;DHT22;271;51.114;13.780;2022-12-31T16:48:46;16.30;1.00
573;DHT22;271;51.114;13.780;2022-12-31T16:51:17;16.30;1.00
573;DHT22;271;51.114;13.780;2022-12-31T16:53:44;16.30;1.00
573;DHT22;271;51.114;13.780;2022-12-31T16:56:20;16.20;1.00
573;DHT22;271;51.114;13.780;2022-12-31T16:58:52;16.20;1.00
573;DHT22;271;51.114;13.780;2022-12-31T17:01:26;16.30;1.00
573;DHT22;271;51.114;13.780;2022-12-31T17:03:57;16.20;1.00
573;DHT22;271;51.114;13.780;2022-12-31T17:06:25;16.20;1.00
573;DHT22;271;51.114;13.780;2022-12-31T17:09:06;16.30;1.00
573;DHT22;271;51.114;13.780;2022-12-31T17:11:42;16.30;1.00
573;DHT22;271;51.114;13.780;2022-12-31T17:14:15;16.30;1.00
573;DHT22;271;51.114;13.780;2022-12-31T17:16:56;16.30;1.00
573;DHT22;271;51.114;13.780;2022-12-31T17:19:32;16.30;1.00
573;DHT22;271;51.114;13.780;2022-12-31T17:22:01;16.30;1.00
573;DHT22;271;51.114;13.780;2022-12-31T17:24:29;16.40;1.00
573;DHT22;271;51.114;13.780;2022-12-31T17:27:02;16.40;1.00
573;DHT22;271;51.114;13.780;2022-12-31T17:29:31;16.50;1.00
573;DHT22;271;51.114;13.780;2022-12-31T17:32:02;16.50;1.00
573;DHT22;271;51.114;13.780;2022-12-31T17:34:32;16.50;1.00
573;DHT22;271;51.114;13.780;2022-12-31T17:37:16;16.50;1.00
573;DHT22;271;51.114;13.780;2022-12-31T17:39:46;16.50;1.00
573;DHT22;271;51.114;13.780;2022-12-31T17:42:22;16.50;1.00
573;DHT22;271;51.114;13.780;2022-12-31T17:44:53;16.60;1.00
573;DHT22;271;51.114;13.780;2022-12-31T17:47:22;16.60;1.00
573;DHT22;271;51.114;13.780;2022-12-31T17:49:52;16.60;1.00
573;DHT22;271;51.114;13.780;2022-12-31T17:52:19;16.60;1.00
573;DHT22;271;51.114;13.780;2022-12-31T17:54:47;16.60;1.00
573;DHT22;271;51.114;13.780;2022-12-31T17:57:24;16.60;1.00